sensor_id;sensor_type;location;lat;lon;timestamp;P1;durP1;ratioP1;P2;durP2;ratioP2
47796;SDS011;33558;50.922;14.068;2022-12-15T07:57:09;30.53;;;15.27;;
47796;SDS011;33558;50.922;14.068;2022-12-15T07:59:44;29.23;;;14.00;;
47796;SDS011;33558;50.922;14.068;2022-12-15T08:42:10;31.97;;;14.60;;
47796;SDS011;33558;50.922;14.068;2022-12-15T08:44:36;34.10;;;16.37;;
47796;SDS011;33558;50.922;14.068;2022-12-15T08:47:04;30.63;;;14.13;;
47796;SDS011;33558;50.922;14.068;2022-12-15T08:49:31;31.73;;;14.23;;
47796;SDS011;33558;50.922;14.068;2022-12-15T08:51:58;26.37;;;14.43;;
47796;SDS011;33558;50.922;14.068;2022-12-15T08:54:25;31.37;;;15.50;;
47796;SDS011;33558;50.922;14.068;2022-12-15T08:56:52;25.17;;;13.07;;
47796;SDS011;33558;50.922;14.068;2022-12-15T08:59:20;33.60;;;15.63;;
47796;SDS011;33558;50.922;14.068;2022-12-15T09:01:47;33.47;;;14.37;;
47796;SDS011;33558;50.922;14.068;2022-12-15T09:04:14;34.60;;;15.43;;
47796;SDS011;33558;50.922;14.068;2022-12-15T09:06:41;40.13;;;19.60;;
47796;SDS011;33558;50.922;14.068;2022-12-15T09:09:09;36.30;;;17.27;;
47796;SDS011;33558;50.922;14.068;2022-12-15T09:11:37;37.90;;;16.77;;
47796;SDS011;33558;50.922;14.068;2022-12-15T09:14:04;35.23;;;17.93;;
47796;SDS011;33558;50.922;14.068;2022-12-15T09:16:33;37.60;;;17.53;;
47796;SDS011;33558;50.922;14.068;2022-12-15T09:19:00;34.73;;;15.80;;
47796;SDS011;33558;50.922;14.068;2022-12-15T09:21:27;32.90;;;16.73;;
47796;SDS011;33558;50.922;14.068;2022-12-15T09:23:56;32.80;;;15.57;;
47796;SDS011;33558;50.922;14.068;2022-12-15T09:26:24;34.67;;;17.07;;
47796;SDS011;33558;50.922;14.068;2022-12-15T09:28:52;37.63;;;16.47;;
47796;SDS011;33558;50.922;14.068;2022-12-15T09:31:20;31.43;;;15.60;;
47796;SDS011;33558;50.922;14.068;2022-12-15T09:33:51;37.00;;;16.83;;
47796;SDS011;33558;50.922;14.068;2022-12-15T09:36:19;36.17;;;17.37;;
47796;SDS011;33558;50.922;14.068;2022-12-15T09:38:46;36.17;;;17.33;;
47796;SDS011;33558;50.922;14.068;2022-12-15T09:41:17;36.57;;;17.17;;
47796;SDS011;33558;50.922;14.068;2022-12-15T09:43:50;41.17;;;19.10;;
47796;SDS011;33558;50.922;14.068;2022-12-15T09:46:23;36.73;;;17.83;;
47796;SDS011;33558;50.922;14.068;2022-12-15T09:48:54;38.77;;;18.90;;
47796;SDS011;33558;50.922;14.068;2022-12-15T09:51:30;43.60;;;19.63;;
47796;SDS011;33558;50.922;14.068;2022-12-15T09:54:00;40.47;;;19.00;;
47796;SDS011;33558;50.922;14.068;2022-12-15T09:56:32;39.03;;;17.83;;
47796;SDS011;33558;50.922;14.068;2022-12-15T09:59:08;44.17;;;19.50;;
47796;SDS011;33558;50.922;14.068;2022-12-15T10:01:43;44.90;;;22.13;;
47796;SDS011;33558;50.922;14.068;2022-12-15T10:04:16;43.83;;;20.53;;
47796;SDS011;33558;50.922;14.068;2022-12-15T10:06:48;51.80;;;22.20;;
47796;SDS011;33558;50.922;14.068;2022-12-15T10:09:16;49.00;;;23.60;;
47796;SDS011;33558;50.922;14.068;2022-12-15T10:11:47;50.83;;;23.80;;
47796;SDS011;33558;50.922;14.068;2022-12-15T10:14:21;45.00;;;23.43;;
47796;SDS011;33558;50.922;14.068;2022-12-15T10:16:56;44.23;;;22.23;;
47796;SDS011;33558;50.922;14.068;2022-12-15T10:19:30;52.37;;;23.37;;
47796;SDS011;33558;50.922;14.068;2022-12-15T10:22:02;53.47;;;23.07;;
47796;SDS011;33558;50.922;14.068;2022-12-15T10:24:29;51.53;;;24.27;;
47796;SDS011;33558;50.922;14.068;2022-12-15T10:26:58;47.37;;;21.13;;
47796;SDS011;33558;50.922;14.068;2022-12-15T10:29:35;42.33;;;21.40;;
47796;SDS011;33558;50.922;14.068;2022-12-15T10:32:09;46.47;;;21.60;;
47796;SDS011;33558;50.922;14.068;2022-12-15T10:34:43;46.03;;;21.90;;
47796;SDS011;33558;50.922;14.068;2022-12-15T10:37:12;49.03;;;21.67;;
47796;SDS011;33558;50.922;14.068;2022-12-15T10:39:41;48.00;;;22.87;;
47796;SDS011;33558;50.922;14.068;2022-12-15T10:42:09;49.40;;;22.63;;
47796;SDS011;33558;50.922;14.068;2022-12-15T10:44:41;47.93;;;23.97;;
47796;SDS011;33558;50.922;14.068;2022-12-15T10:47:10;58.83;;;25.57;;
47796;SDS011;33558;50.922;14.068;2022-12-15T10:49:43;62.43;;;27.87;;
47796;SDS011;33558;50.922;14.068;2022-12-15T10:52:14;58.47;;;25.57;;
47796;SDS011;33558;50.922;14.068;2022-12-15T10:54:45;54.63;;;24.33;;
47796;SDS011;33558;50.922;14.068;2022-12-15T10:57:18;60.13;;;26.17;;
47796;SDS011;33558;50.922;14.068;2022-12-15T10:59:46;63.67;;;26.70;;
47796;SDS011;33558;50.922;14.068;2022-12-15T11:02:29;58.90;;;27.77;;
47796;SDS011;33558;50.922;14.068;2022-12-15T11:05:00;63.70;;;27.53;;
47796;SDS011;33558;50.922;14.068;2022-12-15T11:07:32;58.63;;;26.60;;
47796;SDS011;33558;50.922;14.068;2022-12-15T11:10:00;57.37;;;25.10;;
47796;SDS011;33558;50.922;14.068;2022-12-15T11:12:35;55.08;;;25.92;;
47796;SDS011;33558;50.922;14.068;2022-12-15T11:15:31;55.60;;;26.50;;
47796;SDS011;33558;50.922;14.068;2022-12-15T11:18:04;55.03;;;25.83;;
47796;SDS011;33558;50.922;14.068;2022-12-15T11:20:41;58.30;;;26.93;;
47796;SDS011;33558;50.922;14.068;2022-12-15T11:23:10;60.47;;;27.20;;
47796;SDS011;33558;50.922;14.068;2022-12-15T11:25:42;54.40;;;25.87;;
47796;SDS011;33558;50.922;14.068;2022-12-15T11:28:13;57.63;;;26.43;;
47796;SDS011;33558;50.922;14.068;2022-12-15T11:30:43;55.87;;;24.83;;
47796;SDS011;33558;50.922;14.068;2022-12-15T11:33:12;62.43;;;27.87;;
47796;SDS011;33558;50.922;14.068;2022-12-15T11:35:45;66.00;;;29.67;;
47796;SDS011;33558;50.922;14.068;2022-12-15T11:38:23;66.27;;;30.20;;
47796;SDS011;33558;50.922;14.068;2022-12-15T11:40:54;60.70;;;28.10;;
47796;SDS011;33558;50.922;14.068;2022-12-15T11:43:28;58.90;;;27.23;;
47796;SDS011;33558;50.922;14.068;2022-12-15T11:49:02;63.43;;;27.47;;
47796;SDS011;33558;50.922;14.068;2022-12-15T11:51:38;61.17;;;27.73;;
47796;SDS011;33558;50.922;14.068;2022-12-15T11:54:09;65.70;;;28.27;;
47796;SDS011;33558;50.922;14.068;2022-12-15T11:56:42;63.57;;;30.47;;
47796;SDS011;33558;50.922;14.068;2022-12-15T11:59:20;66.13;;;28.40;;
47796;SDS011;33558;50.922;14.068;2022-12-15T12:02:16;57.27;;;26.90;;
47796;SDS011;33558;50.922;14.068;2022-12-15T12:04:54;61.93;;;28.07;;
47796;SDS011;33558;50.922;14.068;2022-12-15T12:07:29;64.53;;;29.43;;
47796;SDS011;33558;50.922;14.068;2022-12-15T12:10:02;73.13;;;35.13;;
47796;SDS011;33558;50.922;14.068;2022-12-15T12:12:35;70.63;;;34.63;;
47796;SDS011;33558;50.922;14.068;2022-12-15T12:15:13;68.13;;;30.10;;
47796;SDS011;33558;50.922;14.068;2022-12-15T12:17:47;68.17;;;31.70;;
47796;SDS011;33558;50.922;14.068;2022-12-15T12:20:16;59.90;;;28.80;;
47796;SDS011;33558;50.922;14.068;2022-12-15T12:22:48;58.30;;;28.07;;
47796;SDS011;33558;50.922;14.068;2022-12-15T12:25:21;66.22;;;29.83;;
47796;SDS011;33558;50.922;14.068;2022-12-15T12:27:51;54.80;;;25.83;;
47796;SDS011;33558;50.922;14.068;2022-12-15T12:30:22;59.67;;;27.23;;
47796;SDS011;33558;50.922;14.068;2022-12-15T12:32:51;55.10;;;26.50;;
47796;SDS011;33558;50.922;14.068;2022-12-15T12:35:25;54.70;;;25.50;;
47796;SDS011;33558;50.922;14.068;2022-12-15T12:37:59;52.23;;;25.23;;
47796;SDS011;33558;50.922;14.068;2022-12-15T12:40:28;54.63;;;27.03;;
47796;SDS011;33558;50.922;14.068;2022-12-15T12:42:59;51.60;;;24.93;;
47796;SDS011;33558;50.922;14.068;2022-12-15T12:45:29;52.33;;;26.10;;
47796;SDS011;33558;50.922;14.068;2022-12-15T12:48:00;60.53;;;28.70;;
47796;SDS011;33558;50.922;14.068;2022-12-15T12:50:29;61.73;;;28.70;;
47796;SDS011;33558;50.922;14.068;2022-12-15T12:52:59;53.27;;;26.17;;
47796;SDS011;33558;50.922;14.068;2022-12-15T12:55:28;55.13;;;26.40;;
47796;SDS011;33558;50.922;14.068;2022-12-15T12:58:02;59.80;;;27.93;;
47796;SDS011;33558;50.922;14.068;2022-12-15T13:00:30;58.23;;;25.60;;
47796;SDS011;33558;50.922;14.068;2022-12-15T13:05:44;55.97;;;26.73;;
47796;SDS011;33558;50.922;14.068;2022-12-15T13:08:18;51.77;;;26.70;;
47796;SDS011;33558;50.922;14.068;2022-12-15T13:14:26;53.30;;;26.17;;
47796;SDS011;33558;50.922;14.068;2022-12-15T13:17:01;55.03;;;28.20;;
47796;SDS011;33558;50.922;14.068;2022-12-15T13:22:35;59.10;;;27.73;;
47796;SDS011;33558;50.922;14.068;2022-12-15T13:28:00;54.83;;;26.17;;
47796;SDS011;33558;50.922;14.068;2022-12-15T13:30:28;50.73;;;25.57;;
47796;SDS011;33558;50.922;14.068;2022-12-15T13:33:12;55.30;;;27.20;;
47796;SDS011;33558;50.922;14.068;2022-12-15T13:35:39;53.33;;;26.30;;
47796;SDS011;33558;50.922;14.068;2022-12-15T13:38:07;55.23;;;26.43;;
47796;SDS011;33558;50.922;14.068;2022-12-15T13:40:52;53.67;;;25.30;;
47796;SDS011;33558;50.922;14.068;2022-12-15T13:46:13;59.07;;;25.73;;
47796;SDS011;33558;50.922;14.068;2022-12-15T13:48:43;54.97;;;25.60;;
47796;SDS011;33558;50.922;14.068;2022-12-15T13:51:17;52.90;;;25.70;;
47796;SDS011;33558;50.922;14.068;2022-12-15T13:53:50;57.50;;;24.87;;
47796;SDS011;33558;50.922;14.068;2022-12-15T13:56:24;57.70;;;27.63;;
47796;SDS011;33558;50.922;14.068;2022-12-15T13:59:00;58.83;;;26.43;;
47796;SDS011;33558;50.922;14.068;2022-12-15T14:01:30;58.53;;;27.23;;
47796;SDS011;33558;50.922;14.068;2022-12-15T14:04:09;59.80;;;27.73;;
47796;SDS011;33558;50.922;14.068;2022-12-15T14:06:43;61.97;;;29.17;;
47796;SDS011;33558;50.922;14.068;2022-12-15T14:09:12;69.87;;;32.20;;
47796;SDS011;33558;50.922;14.068;2022-12-15T14:11:41;63.00;;;30.70;;
47796;SDS011;33558;50.922;14.068;2022-12-15T14:14:13;63.90;;;31.03;;
47796;SDS011;33558;50.922;14.068;2022-12-15T14:16:44;62.10;;;29.93;;
47796;SDS011;33558;50.922;14.068;2022-12-15T14:19:12;66.97;;;27.67;;
47796;SDS011;33558;50.922;14.068;2022-12-15T14:21:47;66.23;;;31.53;;
47796;SDS011;33558;50.922;14.068;2022-12-15T14:24:17;65.93;;;28.87;;
47796;SDS011;33558;50.922;14.068;2022-12-15T14:26:49;71.13;;;32.60;;
47796;SDS011;33558;50.922;14.068;2022-12-15T14:29:16;66.13;;;28.70;;
47796;SDS011;33558;50.922;14.068;2022-12-15T14:31:43;61.63;;;28.17;;
47796;SDS011;33558;50.922;14.068;2022-12-15T14:34:14;66.97;;;30.27;;
47796;SDS011;33558;50.922;14.068;2022-12-15T14:36:44;68.27;;;31.37;;
47796;SDS011;33558;50.922;14.068;2022-12-15T20:45:36;62.93;;;30.60;;
47796;SDS011;33558;50.922;14.068;2022-12-15T20:48:03;61.77;;;29.33;;
47796;SDS011;33558;50.922;14.068;2022-12-15T21:07:49;77.53;;;32.77;;
47796;SDS011;33558;50.922;14.068;2022-12-15T21:10:17;73.27;;;34.23;;
47796;SDS011;33558;50.922;14.068;2022-12-15T21:12:46;76.13;;;35.47;;
47796;SDS011;33558;50.922;14.068;2022-12-15T21:15:15;76.13;;;33.67;;
47796;SDS011;33558;50.922;14.068;2022-12-15T21:17:43;77.47;;;36.30;;
47796;SDS011;33558;50.922;14.068;2022-12-15T21:20:10;81.13;;;35.27;;
47796;SDS011;33558;50.922;14.068;2022-12-15T21:22:38;68.73;;;33.20;;
47796;SDS011;33558;50.922;14.068;2022-12-15T21:25:15;74.23;;;33.57;;
47796;SDS011;33558;50.922;14.068;2022-12-15T21:27:47;70.60;;;33.30;;
47796;SDS011;33558;50.922;14.068;2022-12-15T21:38:31;73.10;;;33.97;;
47796;SDS011;33558;50.922;14.068;2022-12-15T21:41:02;65.00;;;30.43;;
47796;SDS011;33558;50.922;14.068;2022-12-15T21:43:31;71.10;;;30.93;;
47796;SDS011;33558;50.922;14.068;2022-12-15T21:45:59;68.43;;;33.30;;
47796;SDS011;33558;50.922;14.068;2022-12-15T21:48:27;73.13;;;32.23;;
47796;SDS011;33558;50.922;14.068;2022-12-15T21:51:12;69.33;;;31.73;;
47796;SDS011;33558;50.922;14.068;2022-12-15T21:53:41;68.70;;;31.07;;
47796;SDS011;33558;50.922;14.068;2022-12-15T21:56:15;64.80;;;31.37;;
47796;SDS011;33558;50.922;14.068;2022-12-15T21:58:42;66.70;;;30.13;;
47796;SDS011;33558;50.922;14.068;2022-12-15T22:01:13;63.87;;;29.03;;
47796;SDS011;33558;50.922;14.068;2022-12-15T22:03:42;68.20;;;31.03;;
47796;SDS011;33558;50.922;14.068;2022-12-15T22:06:15;66.63;;;30.87;;
47796;SDS011;33558;50.922;14.068;2022-12-15T22:08:43;66.57;;;30.20;;
47796;SDS011;33558;50.922;14.068;2022-12-15T22:11:12;62.57;;;29.60;;
47796;SDS011;33558;50.922;14.068;2022-12-15T22:13:46;62.25;;;30.25;;
47796;SDS011;33558;50.922;14.068;2022-12-15T22:16:14;64.23;;;29.07;;
47796;SDS011;33558;50.922;14.068;2022-12-15T22:18:42;68.93;;;31.03;;
47796;SDS011;33558;50.922;14.068;2022-12-15T22:26:35;66.67;;;31.93;;
47796;SDS011;33558;50.922;14.068;2022-12-15T22:29:04;63.00;;;29.37;;
47796;SDS011;33558;50.922;14.068;2022-12-15T22:31:38;67.87;;;30.23;;
47796;SDS011;33558;50.922;14.068;2022-12-15T22:34:09;66.53;;;30.80;;
47796;SDS011;33558;50.922;14.068;2022-12-15T22:36:39;69.67;;;31.80;;
47796;SDS011;33558;50.922;14.068;2022-12-15T22:39:07;70.30;;;31.17;;
47796;SDS011;33558;50.922;14.068;2022-12-15T22:41:38;65.20;;;30.77;;
47796;SDS011;33558;50.922;14.068;2022-12-15T22:44:09;70.70;;;31.50;;
47796;SDS011;33558;50.922;14.068;2022-12-15T22:46:41;68.50;;;29.98;;
47796;SDS011;33558;50.922;14.068;2022-12-15T22:49:11;70.47;;;31.90;;
47796;SDS011;33558;50.922;14.068;2022-12-15T22:51:40;62.13;;;29.53;;
47796;SDS011;33558;50.922;14.068;2022-12-15T22:54:14;67.27;;;31.43;;
47796;SDS011;33558;50.922;14.068;2022-12-15T22:56:45;66.18;;;30.27;;
47796;SDS011;33558;50.922;14.068;2022-12-15T22:59:16;63.00;;;31.33;;
47796;SDS011;33558;50.922;14.068;2022-12-15T23:01:46;67.73;;;30.97;;
47796;SDS011;33558;50.922;14.068;2022-12-15T23:04:14;64.93;;;31.10;;
47796;SDS011;33558;50.922;14.068;2022-12-15T23:06:42;66.50;;;30.67;;
47796;SDS011;33558;50.922;14.068;2022-12-15T23:09:09;60.50;;;29.07;;
47796;SDS011;33558;50.922;14.068;2022-12-15T23:11:37;69.77;;;31.87;;
47796;SDS011;33558;50.922;14.068;2022-12-15T23:14:07;66.57;;;30.67;;
47796;SDS011;33558;50.922;14.068;2022-12-15T23:16:36;63.23;;;30.43;;
47796;SDS011;33558;50.922;14.068;2022-12-15T23:19:04;66.23;;;31.00;;
47796;SDS011;33558;50.922;14.068;2022-12-15T23:21:33;66.90;;;30.20;;
47796;SDS011;33558;50.922;14.068;2022-12-15T23:24:01;66.87;;;30.83;;
47796;SDS011;33558;50.922;14.068;2022-12-15T23:26:29;61.53;;;29.10;;
47796;SDS011;33558;50.922;14.068;2022-12-15T23:28:56;65.70;;;29.57;;
47796;SDS011;33558;50.922;14.068;2022-12-15T23:31:25;63.30;;;29.67;;
47796;SDS011;33558;50.922;14.068;2022-12-15T23:33:53;62.50;;;28.57;;
47796;SDS011;33558;50.922;14.068;2022-12-15T23:36:20;63.13;;;29.17;;
47796;SDS011;33558;50.922;14.068;2022-12-15T23:38:48;68.90;;;31.47;;
47796;SDS011;33558;50.922;14.068;2022-12-15T23:41:19;65.50;;;31.63;;
47796;SDS011;33558;50.922;14.068;2022-12-15T23:43:47;67.47;;;30.03;;
47796;SDS011;33558;50.922;14.068;2022-12-15T23:46:15;63.07;;;31.20;;
47796;SDS011;33558;50.922;14.068;2022-12-15T23:48:44;71.37;;;29.97;;
47796;SDS011;33558;50.922;14.068;2022-12-15T23:51:13;59.87;;;29.87;;
47796;SDS011;33558;50.922;14.068;2022-12-15T23:53:43;69.60;;;32.43;;
47796;SDS011;33558;50.922;14.068;2022-12-15T23:56:12;65.60;;;30.07;;
47796;SDS011;33558;50.922;14.068;2022-12-15T23:58:41;65.20;;;31.00;;
